Latest Weather Observations for Kununurra Airport

IDW60801

Issued at 8:02 am WST Sunday 5 July 2015 (issued every 30 minutes, with the page automatically refreshed every 10 minutes)

About weather observations | Map of weather stations | Latest weather observations for WA | Other Formats
Station Details ID: 002056 Name: KUNUNURRA AERO Lat: -15.78 Lon: 128.71 Height: 44.0 m
Data from the previous 72 hours. | See also: Recent months at Kununurra Airport
Date/Time
WST
Temp
°C
App
Temp
°C
Dew
Point
Rel
Hum
%
Delta-T
°C
Wind Press
QNH
hPa
Press
MSL
hPa
Rain
since 9 am
mm
Dir
 
Spd
km/h
Gust
km/h
Spd
kts
Gust
kts
05/08:00am 21.7 16.6 0.5 24 9.6 SSE 17 24 9 13 1018.1 1018.0 0.0
05/07:30am 20.6 22.1 19.8 95 0.5 SSE 11 15 6 8 1018.0 1017.9 0.0
05/07:00am 19.0 16.1 4.7 39 6.9 SSE 9 15 5 8 1017.9 1017.8 0.0
05/06:52am 17.1 14.8 5.8 47 5.5 SSE 7 13 4 7 1017.8 1017.7 0.0
05/06:30am 12.0 10.1 7.7 75 2.1 SE 7 9 4 5 1017.7 1017.6 0.0
05/06:00am 10.1 8.9 6.5 78 1.7 SSE 2 7 1 4 1017.4 1017.3 0.0
05/05:30am 10.4 9.0 7.3 81 1.5 SE 4 7 2 4 1017.1 1017.0 0.0
05/05:00am 10.2 8.3 7.7 84 1.2 SE 7 9 4 5 1016.7 1016.6 0.0
05/04:30am 10.8 8.9 7.7 81 1.5 SSE 7 9 4 5 1016.4 1016.3 0.0
05/04:07am 11.9 10.0 8.9 82 1.5 SSE 9 15 5 8 1016.2 1016.1 0.0
05/04:00am 17.0 14.0 5.9 48 5.4 SSE 11 15 6 8 1016.1 1016.0 0.0
05/03:57am 16.8 13.8 5.9 48 5.3 SSE 11 17 6 9 1016.0 1015.9 0.0
05/03:30am 11.8 10.9 9.2 84 1.3 SSE 4 9 2 5 1015.8 1015.7 0.0
05/03:00am 12.5 12.7 11.7 95 0.4 SSE 2 7 1 4 1015.7 1015.6 0.0
05/02:48am 13.0 - 14.1 - - SE 7 9 4 5 1015.7 1015.6 0.0
05/02:30am 18.2 19.3 18.0 99 0.1 SSE 9 11 5 6 1015.5 1015.4 0.0
05/02:00am 18.5 18.1 16.3 87 1.3 SSE 13 15 7 8 1015.6 1015.5 0.0
05/01:30am 15.8 14.5 11.3 74 2.4 SSE 9 11 5 6 1015.7 1015.6 0.0
05/01:00am 18.3 17.4 12.6 69 3.2 S 9 11 5 6 1015.7 1015.6 0.0
05/12:30am 16.8 16.0 12.8 77 2.2 SSE 9 11 5 6 1015.6 1015.5 0.0
05/12:00am 16.6 16.1 12.6 77 2.2 SSE 7 9 4 5 1015.8 1015.7 0.0
 
Date/Time
WST
Temp
°C
App
Temp
°C
Dew
Point
Rel
Hum
%
Delta-T
°C
Wind Press
QNH
hPa
Press
MSL
hPa
Rain
since 9 am
mm
Dir
 
Spd
km/h
Gust
km/h
Spd
kts
Gust
kts
04/11:30pm 18.9 16.4 8.0 49 5.6 S 11 13 6 7 1015.8 1015.7 0.0
04/11:00pm 14.3 13.8 9.4 72 2.5 SSE 2 6 1 3 1015.8 1015.7 0.0
04/10:30pm 15.7 16.0 10.8 72 2.6 CALM 0 2 0 1 1015.8 1015.7 0.0
04/10:00pm 17.9 16.4 8.6 54 4.8 ESE 6 9 3 5 1015.6 1015.5 0.0
04/09:30pm 18.9 16.7 8.0 49 5.6 SE 9 13 5 7 1015.5 1015.4 0.0
04/09:00pm 15.6 14.1 10.7 72 2.6 ESE 9 13 5 7 1015.5 1015.4 0.0
04/08:30pm 16.8 15.6 10.4 66 3.4 SSE 7 9 4 5 1015.2 1015.1 0.0
04/08:00pm 17.3 16.5 11.0 66 3.4 SSE 6 7 3 4 1015.1 1015.0 0.0
04/07:30pm 17.6 16.8 11.1 65 3.5 SSE 6 7 3 4 1014.9 1014.8 0.0
04/07:00pm 18.7 18.4 12.6 67 3.4 SE 6 6 3 3 1014.5 1014.4 0.0
04/06:30pm 20.7 22.6 18.6 88 1.3 S 6 7 3 4 1014.2 1014.1 0.0
04/06:00pm 23.9 27.6 23.3 96 0.4 SSE 9 11 5 6 1013.9 1013.8 0.0
04/05:30pm 24.6 29.0 24.5 99 0.1 S 9 13 5 7 1013.8 1013.7 0.0
04/05:00pm 25.5 30.6 25.5 100 0.0 SSE 9 13 5 7 1013.6 1013.5 0.0
04/04:30pm 27.1 32.1 27.1 100 0.0 SSE 15 20 8 11 1013.4 1013.3 0.0
04/04:00pm 27.8 32.8 27.7 99 0.1 SSE 17 26 9 14 1013.3 1013.2 0.0
04/03:30pm 28.0 32.3 28.0 100 0.0 S 22 30 12 16 1013.2 1013.1 0.0
04/03:00pm 28.5 33.7 28.4 99 0.1 S 19 26 10 14 1013.2 1013.1 0.0
04/02:30pm 28.4 33.9 28.4 100 0.0 SSE 17 24 9 13 1013.4 1013.3 0.0
04/02:00pm 28.7 34.4 28.6 99 0.1 SSE 17 22 9 12 1013.6 1013.5 0.0
04/01:30pm 28.8 34.8 28.5 98 0.2 SSE 15 20 8 11 1013.8 1013.7 0.0
04/01:00pm 28.8 34.0 28.0 95 0.6 SSE 17 24 9 13 1014.3 1014.2 0.0
04/12:30pm 28.2 32.2 26.2 89 1.4 SSE 17 26 9 14 1014.9 1014.8 0.0
04/12:00pm 28.5 30.7 21.8 67 4.5 S 13 24 7 13 1015.5 1015.4 0.0
04/11:30am 27.4 25.7 14.8 46 7.6 S 17 28 9 15 1016.1 1016.0 0.0
04/11:00am 27.1 22.8 3.0 21 11.9 SSE 15 20 8 11 1016.7 1016.6 0.0
04/10:30am 26.6 22.1 0.0 17 12.4 SE 13 20 7 11 1017.1 1017.0 0.0
04/10:00am 26.1 20.8 -0.8 17 12.3 ESE 17 30 9 16 1017.5 1017.4 0.0
04/09:30am 25.4 19.6 -1.2 17 12.0 ESE 19 26 10 14 1017.9 1017.8 0.0
04/09:00am 24.3 19.9 0.5 21 11.0 SE 13 19 7 10 1018.3 1018.2 0.0
04/08:30am 23.5 19.4 4.5 29 9.4 SE 15 20 8 11 1018.6 1018.4 0.0
04/08:00am 22.3 23.5 22.1 99 0.1 SSE 19 24 10 13 1018.7 1018.5 0.0
04/07:30am 21.5 23.0 21.2 98 0.2 SSE 15 20 8 11 1018.3 1018.2 0.0
04/07:00am 20.5 19.3 14.1 66 3.7 SSE 13 17 7 9 1018.0 1017.9 0.0
04/06:51am 20.3 17.7 7.7 44 6.5 SSE 11 15 6 8 1017.9 1017.8 0.0
04/06:30am 15.3 13.8 9.0 66 3.2 SE 7 11 4 6 1017.7 1017.6 0.0
04/06:00am 13.6 12.5 9.9 78 1.9 SE 6 7 3 4 1017.3 1017.2 0.0
04/05:30am 13.4 13.4 9.9 79 1.8 CALM 0 0 0 0 1016.8 1016.7 0.0
04/05:00am 14.9 13.5 9.0 68 3.0 SE 6 15 3 8 1016.5 1016.4 0.0
04/04:30am 16.3 14.2 8.2 58 4.1 ESE 9 17 5 9 1016.2 1016.1 0.0
04/04:00am 13.9 13.8 9.4 74 2.3 CALM 0 0 0 0 1016.3 1016.2 0.0
04/03:30am 15.6 14.2 9.4 66 3.2 ESE 7 9 4 5 1016.2 1016.1 0.0
04/03:00am 14.6 14.8 10.4 76 2.2 CALM 0 0 0 0 1016.0 1015.9 0.0
04/02:30am 14.6 14.8 10.6 77 2.1 CALM 0 7 0 4 1015.9 1015.8 0.0
04/02:00am 16.3 16.6 10.9 70 2.9 CALM 0 0 0 0 1015.8 1015.7 0.0
04/01:30am 16.3 15.8 11.9 75 2.4 S 6 7 3 4 1015.8 1015.7 0.0
04/01:00am 20.1 21.2 17.0 82 1.9 SE 7 9 4 5 1015.9 1015.8 0.0
04/12:30am 21.6 21.7 15.4 68 3.7 SE 9 13 5 7 1016.1 1016.0 0.0
04/12:00am 21.8 20.9 11.4 51 5.8 SE 7 11 4 6 1016.3 1016.2 0.0
 
Date/Time
WST
Temp
°C
App
Temp
°C
Dew
Point
Rel
Hum
%
Delta-T
°C
Wind Press
QNH
hPa
Press
MSL
hPa
Rain
since 9 am
mm
Dir
 
Spd
km/h
Gust
km/h
Spd
kts
Gust
kts
03/11:30pm 19.9 18.6 9.8 52 5.4 SSE 7 15 4 8 1016.4 1016.3 0.0
03/11:00pm 17.7 16.6 12.1 69 3.1 SSW 9 9 5 5 1016.4 1016.3 0.0
03/10:30pm 19.3 18.4 10.8 58 4.6 SSE 6 7 3 4 1016.3 1016.2 0.0
03/10:00pm 18.8 18.8 11.3 61 4.1 ENE 2 6 1 3 1016.4 1016.3 0.0
03/09:30pm 18.4 18.0 12.3 67 3.4 NNE 6 9 3 5 1016.3 1016.2 0.0
03/09:00pm 22.6 21.9 13.2 55 5.4 SSE 9 13 5 7 1016.1 1016.0 0.0
03/08:30pm 21.2 22.4 17.3 78 2.4 SE 7 11 4 6 1016.0 1015.9 0.0
03/08:00pm 24.3 26.1 19.6 75 3.0 SSE 9 13 5 7 1015.9 1015.8 0.0
03/07:30pm 24.6 24.4 16.6 61 4.9 SE 13 17 7 9 1015.8 1015.7 0.0
03/07:00pm 23.9 23.0 13.8 53 5.9 SSE 11 13 6 7 1015.5 1015.4 0.0
03/06:30pm 24.2 23.6 13.6 51 6.2 SSE 9 11 5 6 1015.4 1015.3 0.0
03/06:00pm 25.1 24.6 13.9 49 6.6 S 9 13 5 7 1015.3 1015.2 0.0
03/05:30pm 26.0 26.4 16.2 54 6.0 S 9 11 5 6 1014.9 1014.8 0.0
03/05:00pm 27.0 28.9 19.8 64 4.7 S 9 13 5 7 1014.6 1014.5 0.0
03/04:30pm 28.7 31.3 22.0 67 4.5 S 11 17 6 9 1014.3 1014.2 0.0
03/04:00pm 29.5 32.9 23.4 69 4.2 S 11 17 6 9 1014.1 1014.0 0.0
03/03:30pm 29.9 33.4 24.8 74 3.6 SSE 15 20 8 11 1014.1 1014.0 0.0
03/03:00pm 30.0 29.8 17.6 47 7.9 SSE 15 20 8 11 1014.1 1014.0 0.0
03/02:30pm 30.4 27.0 9.1 26 11.9 SSE 17 24 9 13 1014.3 1014.2 0.0
03/02:00pm 30.1 27.3 7.1 23 12.4 SSE 11 20 6 11 1014.7 1014.6 0.0
03/01:30pm 30.2 26.0 7.3 23 12.4 SE 19 26 10 14 1015.1 1015.0 0.0
03/01:00pm 29.6 25.2 6.5 23 12.3 SSE 19 24 10 13 1015.4 1015.3 0.0
03/12:30pm 29.6 25.3 6.8 23 12.2 SE 19 26 10 14 1016.0 1015.9 0.0
03/12:00pm 28.6 23.6 6.5 24 11.7 ESE 22 39 12 21 1016.4 1016.3 0.0
03/11:30am 28.9 24.4 7.0 25 11.7 ESE 20 32 11 17 1017.1 1017.0 0.0
03/11:00am 28.5 24.0 6.9 25 11.5 ESE 20 30 11 16 1017.6 1017.5 0.0
03/10:30am 27.8 22.5 6.6 26 11.2 ESE 24 32 13 17 1018.2 1018.1 0.0
03/10:00am 27.1 22.2 6.8 27 10.7 ESE 22 30 12 16 1018.8 1018.6 0.0
03/09:30am 26.8 21.8 6.6 27 10.6 ESE 22 32 12 17 1019.1 1018.9 0.0
03/09:00am 26.2 22.0 7.3 30 10.0 ESE 19 30 10 16 1019.3 1019.1 0.0
03/08:30am 25.5 20.6 7.0 30 9.7 ESE 22 28 12 15 1019.4 1019.2 0.0
03/08:00am 24.9 20.4 7.1 32 9.3 ESE 20 35 11 19 1019.3 1019.1 0.0
03/07:30am 23.5 21.3 9.2 40 7.7 SSE 11 17 6 9 1019.2 1019.0 0.0
03/07:00am 22.7 21.8 10.5 46 6.7 ESE 6 7 3 4 1019.0 1018.8 0.0
03/06:30am 20.5 21.1 16.7 79 2.3 S 9 11 5 6 1018.8 1018.6 0.0
03/06:00am 20.3 20.7 16.3 78 2.4 SSE 9 13 5 7 1018.2 1018.1 0.0
03/05:30am 19.9 20.8 17.6 86 1.4 SSE 9 11 5 6 1017.9 1017.8 0.0
03/05:00am 20.8 21.8 18.6 87 1.4 S 11 13 6 7 1017.7 1017.6 0.0
03/04:30am 20.6 22.0 18.7 89 1.2 S 9 13 5 7 1017.4 1017.3 0.0
03/04:00am 21.4 22.3 18.5 83 1.8 SSE 11 15 6 8 1017.2 1017.1 0.0
03/03:30am 21.5 21.6 16.4 72 3.1 SSE 11 13 6 7 1017.2 1017.1 0.0
03/03:00am 21.7 21.3 14.0 61 4.5 SSE 9 11 5 6 1017.2 1017.1 0.0
03/02:30am 19.4 20.2 16.4 83 1.8 S 7 9 4 5 1017.2 1017.1 0.0
03/02:00am 21.1 22.8 18.5 85 1.6 S 7 11 4 6 1017.2 1017.1 0.0
03/01:30am 22.3 21.6 15.4 65 4.1 SSE 13 15 7 8 1017.2 1017.1 0.0
03/01:00am 21.4 20.1 11.3 52 5.6 SSE 9 11 5 6 1017.4 1017.3 0.0
03/12:30am 20.9 19.5 10.9 52 5.5 SSE 9 11 5 6 1017.7 1017.6 0.0
03/12:00am 17.7 17.2 11.9 69 3.2 SSE 6 7 3 4 1017.9 1017.8 0.0
 
Date/Time
WST
Temp
°C
App
Temp
°C
Dew
Point
Rel
Hum
%
Delta-T
°C
Wind Press
QNH
hPa
Press
MSL
hPa
Rain
since 9 am
mm
Dir
 
Spd
km/h
Gust
km/h
Spd
kts
Gust
kts
02/11:30pm 19.4 18.6 11.8 61 4.2 SE 7 9 4 5 1018.0 1017.9 0.0
02/11:00pm 20.8 19.3 10.7 52 5.5 SSE 9 11 5 6 1018.0 1017.9 0.0
02/10:30pm 18.9 17.5 11.0 60 4.3 S 9 9 5 5 1018.1 1018.0 0.0
02/10:00pm 18.7 18.7 13.6 72 2.9 SE 6 7 3 4 1018.2 1018.1 0.0
02/09:30pm 19.0 18.8 13.6 71 3.1 SE 7 9 4 5 1018.2 1018.1 0.0
02/09:00pm 19.3 19.9 13.1 67 3.5 SSE 2 6 1 3 1018.2 1018.1 0.0
02/08:30pm 20.0 19.6 12.3 61 4.3 SSE 6 7 3 4 1018.0 1017.9 0.0
02/08:00pm 20.5 20.5 13.5 64 4.0 SSE 6 7 3 4 1017.6 1017.5 0.0
02/07:30pm 21.5 21.6 14.5 64 4.1 SSE 7 9 4 5 1017.4 1017.3 0.0
02/07:00pm 24.8 24.3 13.9 50 6.4 SSE 9 11 5 6 1017.1 1017.0 0.0
02/06:30pm 25.2 25.4 14.8 52 6.2 SSE 7 7 4 4 1016.6 1016.5 0.0
02/06:00pm 26.4 27.3 17.5 58 5.6 SSE 9 11 5 6 1016.1 1016.0 0.0
02/05:30pm 27.5 28.7 19.0 59 5.5 SSE 11 15 6 8 1015.7 1015.6 0.0
02/05:00pm 28.4 31.8 23.3 74 3.5 SE 11 17 6 9 1015.4 1015.3 0.0
02/04:30pm 29.8 33.2 24.7 74 3.6 SE 15 20 8 11 1015.2 1015.1 0.0
02/04:00pm 30.4 34.1 25.2 74 3.7 SE 15 19 8 10 1015.0 1014.9 0.0
02/03:30pm 30.9 34.2 25.1 71 4.1 SE 17 24 9 13 1015.0 1014.9 0.0
02/03:00pm 30.9 33.7 24.9 70 4.2 SE 19 26 10 14 1015.2 1015.1 0.0
02/02:30pm 31.0 33.7 24.1 66 4.8 SE 17 26 9 14 1015.3 1015.2 0.0
02/02:00pm 30.7 30.4 19.2 50 7.5 SE 19 24 10 13 1015.6 1015.5 0.0
02/01:30pm 31.1 29.6 15.4 38 9.7 ESE 17 22 9 12 1016.0 1015.9 0.0
02/01:00pm 31.0 28.4 14.8 37 9.9 E 22 33 12 18 1016.5 1016.4 0.0
02/12:30pm 29.4 26.8 13.2 37 9.6 ESE 19 28 10 15 1017.2 1017.1 0.0
02/12:00pm 30.4 27.3 12.1 32 10.7 ESE 20 28 11 15 1017.7 1017.6 0.0
02/11:30am 29.2 25.7 11.0 32 10.4 SE 20 28 11 15 1018.4 1018.3 0.0
02/11:00am 28.3 24.3 10.4 32 10.1 SE 22 30 12 16 1019.0 1018.8 0.0
02/10:30am 27.7 23.3 10.5 34 9.7 ESE 24 30 13 16 1019.5 1019.3 0.0
02/10:00am 27.6 21.8 9.6 32 10.0 ESE 30 37 16 20 1019.8 1019.6 0.0
02/09:30am 28.0 23.0 9.4 31 10.3 ESE 26 35 14 19 1020.1 1019.9 0.0
02/09:00am 27.1 23.9 10.1 34 9.5 SSE 17 24 9 13 1020.3 1020.1 0.0
02/08:30am 24.9 22.5 11.4 42 7.6 SSE 15 22 8 12 1020.4 1020.2 0.0

Other Formats:

Comma delimited format used in spreadsheet applications
http://www.bom.gov.au/fwo/IDW60801/IDW60801.94216.axf

JavaScript Object Notation format (JSON) in row-major order
http://www.bom.gov.au/fwo/IDW60801/IDW60801.94216.json